Pagrindinis puslapis
METAR-TAF:

METAR-TAF

Oro uostai :

Vekšė, Švedija

platuma: 56-51N, ilguma: 014-50E, Aukštis: 199 m

Dabartinis oras

Ataskaita buvo paskelbta 19 minutes, ne 03:20 UTC
Ramus vėjas
Temperatūra -11°C
Drėgmė 92%
Slėgis 997 hPa
Matomumas 10 km arba daugiau

METAR: ESMX 010320Z AUTO 00000KT 9999 NCD M11/M12 Q0997

Laikas: 04:39 (03:39 UTC)

Prognozė

Ataskaita buvo paskelbta 13 valandos ir 9 minutes, ne 14:30 UTC
Prognozė galioja nuo 30 metu 15 UTC su 30 metu 17 UTC
Vėjas 10 kt iš Šiaurės Rytų
Matomumas 10 km arba daugiau
Su prošvaistėmis ne aukštis 4500 ft

TAF: ESMX 301430Z 3015/3017 04010KT 9999 BKN045

Orai ataskaitas ir orų prognozės (METAR, TAF).

turimą stotys yra geltonos ir raudonos taškus žemėlapyje.

Perkelti pele per norėdami pamatyti stoties vardą.

Tada spustelėkite, norėdami matyti oro stebėjimo ir prognozės.

Norėdami pakeisti žemėlapį: spustelėkite ant žalios mygtukų su juodo kryžiaus žemyn,; žalią mygtuką su brūkšneliu, jei norite nutolinti; arba žalių rodyklių gretimoms žemėlapius.


METAR-TAF: